createdAt,value
2022-10-07T00:01:50.027Z,6.20
2022-10-07T00:04:16.881Z,6.20
2022-10-07T00:06:43.608Z,6.20
2022-10-07T00:09:10.329Z,6.30
2022-10-07T00:11:37.357Z,6.30
2022-10-07T00:14:04.403Z,6.20
2022-10-07T00:16:32.063Z,6.30
2022-10-07T00:18:59.736Z,6.20
2022-10-07T00:21:26.996Z,6.20
2022-10-07T00:23:53.722Z,6.30
2022-10-07T00:26:21.454Z,6.30
2022-10-07T00:28:48.264Z,6.20
2022-10-07T00:31:18.975Z,6.20
2022-10-07T00:33:45.801Z,6.10
2022-10-07T00:36:16.539Z,6.10
2022-10-07T00:38:43.089Z,6.10
2022-10-07T00:41:12.179Z,6.00
2022-10-07T00:43:38.767Z,6.00
2022-10-07T00:46:12.672Z,5.90
2022-10-07T00:48:39.458Z,5.90
2022-10-07T00:51:06.232Z,5.80
2022-10-07T00:53:33.130Z,5.70
2022-10-07T00:56:01.958Z,5.70
2022-10-07T00:58:32.366Z,5.60
2022-10-07T01:00:58.984Z,5.50
2022-10-07T01:03:25.624Z,5.50
2022-10-07T01:05:52.185Z,5.50
2022-10-07T01:08:19.076Z,5.50
2022-10-07T01:10:50.654Z,5.50
2022-10-07T01:13:18.168Z,5.40
2022-10-07T01:16:03.131Z,5.40
2022-10-07T01:18:37.037Z,5.30
2022-10-07T01:21:08.260Z,5.40
2022-10-07T01:23:34.765Z,5.40
2022-10-07T01:26:11.091Z,5.40
2022-10-07T01:28:39.093Z,5.40
2022-10-07T01:31:06.629Z,5.30
2022-10-07T01:33:33.286Z,5.40
2022-10-07T01:36:05.096Z,5.30
2022-10-07T01:38:32.660Z,5.30
2022-10-07T01:41:04.393Z,5.30
2022-10-07T01:43:30.915Z,5.40
2022-10-07T01:45:57.521Z,5.40
2022-10-07T01:48:24.113Z,5.30
2022-10-07T01:50:50.668Z,5.30
2022-10-07T01:53:29.755Z,5.40
2022-10-07T01:56:02.545Z,5.40
2022-10-07T01:58:45.447Z,5.40
2022-10-07T02:01:30.834Z,5.30
2022-10-07T02:04:00.489Z,5.30
2022-10-07T02:06:45.664Z,5.20
2022-10-07T02:09:31.143Z,5.10
2022-10-07T02:12:00.057Z,5.00
2022-10-07T02:14:29.764Z,5.10
2022-10-07T02:17:03.581Z,5.10
2022-10-07T02:19:34.337Z,5.00
2022-10-07T02:22:02.837Z,5.10
2022-10-07T02:24:29.752Z,5.10
2022-10-07T02:26:56.656Z,5.10
2022-10-07T02:29:23.258Z,5.10
2022-10-07T02:31:49.831Z,5.10
2022-10-07T02:34:20.300Z,5.10
2022-10-07T02:36:48.460Z,5.10
2022-10-07T02:39:14.988Z,5.20
2022-10-07T02:41:51.909Z,5.20
2022-10-07T02:44:18.542Z,5.10
2022-10-07T02:46:46.353Z,5.00
2022-10-07T02:49:15.323Z,5.00
2022-10-07T02:51:43.157Z,4.90
2022-10-07T02:54:09.777Z,4.90
2022-10-07T02:56:37.686Z,4.90
2022-10-07T02:59:04.375Z,4.90
2022-10-07T03:01:32.028Z,4.80
2022-10-07T03:03:58.654Z,4.80
2022-10-07T03:06:25.279Z,4.80
2022-10-07T03:08:52.192Z,4.70
2022-10-07T03:11:18.748Z,4.70
2022-10-07T03:13:45.743Z,4.70
2022-10-07T03:16:12.335Z,4.60
2022-10-07T03:18:38.981Z,4.60
2022-10-07T03:21:05.609Z,4.60
2022-10-07T03:23:32.195Z,4.50
2022-10-07T03:25:58.879Z,4.60
2022-10-07T03:28:25.770Z,4.60
2022-10-07T03:30:52.358Z,4.60
2022-10-07T03:33:19.443Z,4.60
2022-10-07T03:35:46.079Z,4.60
2022-10-07T03:38:12.625Z,4.60
2022-10-07T03:40:39.455Z,4.60
2022-10-07T03:43:06.025Z,4.50
2022-10-07T03:45:32.573Z,4.50
2022-10-07T03:47:59.296Z,4.50
2022-10-07T03:50:25.995Z,4.50
2022-10-07T03:52:52.648Z,4.40
2022-10-07T03:55:19.332Z,4.40
2022-10-07T03:57:58.451Z,4.50
2022-10-07T04:00:26.111Z,4.50
2022-10-07T04:02:52.745Z,4.60
2022-10-07T04:05:19.853Z,4.60
2022-10-07T04:07:47.715Z,4.60
2022-10-07T04:10:15.234Z,4.60
2022-10-07T04:12:41.843Z,4.60
2022-10-07T04:15:08.560Z,4.60
2022-10-07T04:17:35.090Z,4.70
2022-10-07T04:20:01.644Z,4.70
2022-10-07T04:22:28.216Z,4.70
2022-10-07T04:25:15.013Z,4.60
2022-10-07T04:27:58.094Z,4.50
2022-10-07T04:30:25.296Z,4.40
2022-10-07T04:32:51.883Z,4.50
2022-10-07T04:35:18.779Z,4.40
2022-10-07T04:37:45.553Z,4.30
2022-10-07T04:40:12.344Z,4.20
2022-10-07T04:42:57.803Z,4.10
2022-10-07T04:45:24.784Z,4.10
2022-10-07T04:47:51.457Z,4.00
2022-10-07T04:50:17.987Z,4.00
2022-10-07T04:52:44.595Z,4.00
2022-10-07T04:55:12.375Z,4.00
2022-10-07T04:57:38.916Z,4.00
2022-10-07T05:00:05.792Z,4.00
2022-10-07T05:02:32.410Z,4.00
2022-10-07T05:04:59.777Z,4.00
2022-10-07T05:07:26.343Z,4.00
2022-10-07T05:09:53.089Z,4.00
2022-10-07T05:12:19.818Z,3.90
2022-10-07T05:14:46.393Z,3.90
2022-10-07T05:17:13.749Z,3.80
2022-10-07T05:19:40.275Z,3.70
2022-10-07T05:22:06.865Z,3.70
2022-10-07T05:24:33.467Z,3.70
2022-10-07T05:27:00.018Z,3.80
2022-10-07T05:29:26.553Z,3.80
2022-10-07T05:31:53.135Z,3.80
2022-10-07T05:34:20.236Z,3.90
2022-10-07T05:36:47.304Z,3.90
2022-10-07T05:39:14.510Z,3.90
2022-10-07T05:41:45.586Z,3.90
2022-10-07T05:44:12.763Z,3.90
2022-10-07T05:46:40.169Z,4.00
2022-10-07T05:49:06.715Z,4.00
2022-10-07T05:51:33.237Z,4.10
2022-10-07T05:53:59.968Z,4.20
2022-10-07T05:56:26.548Z,4.40
2022-10-07T05:58:53.147Z,4.50
2022-10-07T06:01:20.427Z,4.60
2022-10-07T06:03:50.525Z,4.70
2022-10-07T06:06:17.379Z,4.90
2022-10-07T06:08:43.926Z,5.00
2022-10-07T06:11:29.322Z,5.10
2022-10-07T06:13:55.865Z,5.60
2022-10-07T06:16:22.977Z,6.10
2022-10-07T06:18:52.282Z,6.30
2022-10-07T06:21:19.181Z,6.20
2022-10-07T06:23:49.600Z,6.20
2022-10-07T06:26:16.118Z,6.00
2022-10-07T06:28:42.748Z,5.90
2022-10-07T06:31:10.069Z,5.80
2022-10-07T06:33:36.681Z,5.80
2022-10-07T06:36:06.452Z,5.80
2022-10-07T06:38:33.029Z,5.80
2022-10-07T06:41:00.115Z,5.80
2022-10-07T06:43:27.103Z,5.80
2022-10-07T06:45:58.626Z,5.80
2022-10-07T06:48:25.614Z,5.90
2022-10-07T06:50:52.558Z,5.90
2022-10-07T06:53:19.099Z,5.90
2022-10-07T06:55:45.876Z,6.00
2022-10-07T06:58:12.541Z,6.10
2022-10-07T07:00:39.214Z,6.10
2022-10-07T07:03:05.770Z,6.20
2022-10-07T07:05:35.621Z,6.20
2022-10-07T07:08:02.679Z,6.40
2022-10-07T07:10:29.211Z,6.50
2022-10-07T07:12:55.845Z,6.60
2022-10-07T07:15:22.414Z,6.90
2022-10-07T07:17:49.366Z,7.00
2022-10-07T07:20:15.979Z,7.10
2022-10-07T07:22:43.356Z,7.20
2022-10-07T07:25:10.056Z,7.40
2022-10-07T07:27:36.643Z,7.50
2022-10-07T07:30:03.648Z,7.70
2022-10-07T07:32:30.209Z,7.90
2022-10-07T07:34:56.822Z,8.40
2022-10-07T07:37:24.688Z,9.40
2022-10-07T07:39:51.268Z,10.80
2022-10-07T07:42:18.874Z,12.10
2022-10-07T07:44:45.438Z,13.10
2022-10-07T07:47:12.045Z,14.00
2022-10-07T07:49:38.598Z,14.30
2022-10-07T07:52:05.404Z,14.60
2022-10-07T07:54:32.275Z,14.80
2022-10-07T07:56:58.814Z,14.60
2022-10-07T07:59:25.868Z,14.80
2022-10-07T08:01:52.400Z,14.80
2022-10-07T08:04:18.954Z,15.10
2022-10-07T08:06:45.512Z,15.10
2022-10-07T08:09:12.992Z,15.00
2022-10-07T08:11:40.415Z,14.90
2022-10-07T08:14:07.981Z,14.30
2022-10-07T08:16:35.940Z,13.60
2022-10-07T08:19:02.486Z,13.00
2022-10-07T08:21:32.916Z,12.50
2022-10-07T08:24:00.275Z,12.40
2022-10-07T08:26:28.646Z,12.20
2022-10-07T08:28:55.267Z,12.10
2022-10-07T08:31:21.871Z,11.90
2022-10-07T08:33:48.879Z,11.80
2022-10-07T08:36:16.486Z,11.70
2022-10-07T08:38:43.071Z,11.90
2022-10-07T08:41:09.883Z,11.80
2022-10-07T08:43:36.907Z,11.80
2022-10-07T08:46:04.136Z,11.90
2022-10-07T08:48:32.656Z,12.00
2022-10-07T08:51:02.337Z,12.00
2022-10-07T08:53:30.512Z,12.00
2022-10-07T08:56:01.701Z,12.10
2022-10-07T08:58:36.632Z,12.30
2022-10-07T09:01:22.533Z,12.50
2022-10-07T09:03:55.046Z,12.70
2022-10-07T09:06:28.775Z,13.10
2022-10-07T09:08:58.183Z,13.00
2022-10-07T09:11:25.864Z,13.20
2022-10-07T09:13:53.024Z,13.50
2022-10-07T09:16:20.133Z,13.70
2022-10-07T09:19:04.736Z,13.80
2022-10-07T09:21:33.153Z,14.00
2022-10-07T09:24:18.066Z,14.20
2022-10-07T09:26:44.601Z,14.30
2022-10-07T09:29:11.150Z,14.40
2022-10-07T09:31:38.855Z,14.50
2022-10-07T09:34:05.518Z,14.60
2022-10-07T09:36:32.052Z,14.40
2022-10-07T09:38:59.507Z,14.20
2022-10-07T09:41:32.560Z,13.90
2022-10-07T09:43:59.118Z,13.70
2022-10-07T09:46:27.045Z,13.70
2022-10-07T09:48:53.644Z,13.70
2022-10-07T09:51:26.957Z,13.70
2022-10-07T09:53:54.868Z,13.70
2022-10-07T09:56:40.951Z,13.60
2022-10-07T09:59:17.492Z,13.70
2022-10-07T10:02:03.061Z,14.00
2022-10-07T10:04:39.909Z,14.30
2022-10-07T10:07:07.149Z,14.60
2022-10-07T10:09:34.044Z,14.80
2022-10-07T10:12:11.498Z,15.00
2022-10-07T10:14:46.298Z,15.20
2022-10-07T10:17:20.763Z,15.30
2022-10-07T10:19:47.309Z,15.30
2022-10-07T10:22:26.995Z,15.40
2022-10-07T10:25:12.781Z,15.60
2022-10-07T10:27:45.887Z,15.50
2022-10-07T10:30:21.685Z,15.50
2022-10-07T10:33:07.149Z,15.60
2022-10-07T10:35:49.123Z,15.70
2022-10-07T10:38:23.305Z,15.70
2022-10-07T10:40:58.902Z,15.90
2022-10-07T10:43:25.422Z,15.90
2022-10-07T10:46:10.397Z,15.90
2022-10-07T10:48:37.959Z,16.10
2022-10-07T10:51:16.236Z,16.10
2022-10-07T10:53:42.822Z,16.20
2022-10-07T10:56:12.475Z,16.50
2022-10-07T10:58:38.993Z,16.50
2022-10-07T11:01:08.548Z,16.50
2022-10-07T11:03:43.016Z,16.50
2022-10-07T11:06:09.680Z,16.60
2022-10-07T11:08:38.442Z,16.90
2022-10-07T11:11:18.253Z,16.90
2022-10-07T11:14:01.786Z,17.10
2022-10-07T11:16:47.154Z,17.20
2022-10-07T11:19:30.481Z,17.30
2022-10-07T11:21:57.541Z,17.40
2022-10-07T11:24:39.249Z,17.50
2022-10-07T11:27:11.593Z,17.70
2022-10-07T11:29:44.275Z,17.60
2022-10-07T11:32:12.675Z,17.70
2022-10-07T11:34:44.038Z,17.70
2022-10-07T11:37:21.681Z,17.80
2022-10-07T11:39:48.483Z,17.90
2022-10-07T11:42:19.909Z,17.60
2022-10-07T11:44:49.551Z,17.50
2022-10-07T11:47:16.686Z,17.70
2022-10-07T11:50:07.760Z,17.90
2022-10-07T11:52:38.145Z,17.90
2022-10-07T11:55:05.978Z,17.90
2022-10-07T11:57:33.136Z,17.90
2022-10-07T12:00:00.333Z,18.00
2022-10-07T12:02:30.223Z,18.10
2022-10-07T12:04:57.465Z,17.80
2022-10-07T12:07:56.582Z,17.90
2022-10-07T12:10:24.218Z,18.00
2022-10-07T12:12:52.192Z,18.20
2022-10-07T12:15:39.784Z,18.30
2022-10-07T12:18:06.303Z,17.90
2022-10-07T12:20:34.592Z,17.80
2022-10-07T12:23:34.649Z,17.80
2022-10-07T12:26:02.435Z,17.80
2022-10-07T12:28:34.575Z,17.70
2022-10-07T12:31:01.214Z,17.90
2022-10-07T12:33:46.207Z,18.00
2022-10-07T12:36:24.015Z,18.10
2022-10-07T12:38:56.885Z,18.30
2022-10-07T12:41:24.927Z,18.40
2022-10-07T12:44:12.554Z,18.40
2022-10-07T12:46:58.131Z,18.40
2022-10-07T12:49:40.859Z,18.50
2022-10-07T12:52:11.448Z,18.70
2022-10-07T12:54:46.945Z,18.50
2022-10-07T12:57:19.721Z,18.40
2022-10-07T13:00:07.918Z,18.50
2022-10-07T13:02:53.012Z,18.50
2022-10-07T13:05:31.838Z,18.40
2022-10-07T13:08:13.630Z,18.40
2022-10-07T13:10:43.301Z,18.50
2022-10-07T13:13:29.076Z,18.50
2022-10-07T13:15:59.747Z,18.50
2022-10-07T13:18:31.525Z,18.60
2022-10-07T13:21:24.427Z,18.50
2022-10-07T13:23:51.523Z,18.40
2022-10-07T13:26:18.870Z,18.40
2022-10-07T13:28:47.185Z,18.50
2022-10-07T13:31:15.279Z,18.60
2022-10-07T13:33:43.206Z,18.60
2022-10-07T13:36:22.936Z,18.80
2022-10-07T13:38:51.013Z,18.80
2022-10-07T13:41:21.373Z,18.90
2022-10-07T13:43:49.234Z,19.00
2022-10-07T13:46:16.814Z,19.00
2022-10-07T13:48:45.594Z,19.10
2022-10-07T13:51:13.641Z,19.10
2022-10-07T13:53:41.518Z,19.20
2022-10-07T13:56:26.881Z,19.10
2022-10-07T13:58:56.448Z,19.10
2022-10-07T14:01:23.709Z,19.10
2022-10-07T14:04:03.744Z,19.10
2022-10-07T14:06:37.455Z,19.00
2022-10-07T14:09:04.001Z,19.00
2022-10-07T14:11:30.773Z,18.90
2022-10-07T14:13:59.427Z,18.80
2022-10-07T14:16:27.480Z,18.60
2022-10-07T14:18:54.046Z,18.60
2022-10-07T14:21:20.606Z,18.60
2022-10-07T14:23:47.216Z,18.60
2022-10-07T14:26:17.964Z,18.70
2022-10-07T14:28:44.657Z,18.70
2022-10-07T14:31:35.243Z,18.70
2022-10-07T14:34:23.769Z,18.60
2022-10-07T14:37:03.281Z,18.60
2022-10-07T14:39:48.865Z,18.60
2022-10-07T14:42:18.001Z,18.60
2022-10-07T14:44:44.544Z,18.60
2022-10-07T14:47:12.045Z,18.50
2022-10-07T14:49:38.897Z,18.50
2022-10-07T14:52:06.128Z,18.50
2022-10-07T14:54:33.105Z,18.40
2022-10-07T14:56:59.688Z,18.40
2022-10-07T14:59:26.236Z,18.30
2022-10-07T15:01:52.766Z,18.30
2022-10-07T15:04:19.439Z,18.30
2022-10-07T15:06:50.606Z,18.20
2022-10-07T15:09:18.276Z,18.10
2022-10-07T15:11:44.837Z,18.00
2022-10-07T15:14:11.821Z,18.00
2022-10-07T15:16:38.801Z,17.90
2022-10-07T15:19:05.472Z,17.80
2022-10-07T15:21:32.055Z,17.70
2022-10-07T15:23:58.601Z,17.70
2022-10-07T15:26:25.185Z,17.70
2022-10-07T15:28:54.162Z,17.50
2022-10-07T15:31:21.067Z,17.40
2022-10-07T15:33:47.820Z,17.30
2022-10-07T15:36:14.873Z,17.30
2022-10-07T15:38:41.411Z,17.20
2022-10-07T15:41:07.955Z,17.10
2022-10-07T15:43:34.548Z,17.10
2022-10-07T15:46:01.542Z,17.00
2022-10-07T15:48:28.760Z,16.90
2022-10-07T15:50:56.117Z,16.90
2022-10-07T15:53:23.011Z,16.80
2022-10-07T15:55:50.900Z,16.70
2022-10-07T15:58:18.249Z,16.70
2022-10-07T16:00:55.820Z,16.60
2022-10-07T16:03:22.359Z,16.50
2022-10-07T16:05:56.103Z,16.40
2022-10-07T16:08:22.661Z,16.40
2022-10-07T16:10:49.207Z,16.30
2022-10-07T16:13:15.757Z,16.20
2022-10-07T16:15:42.563Z,16.10
2022-10-07T16:18:09.171Z,16.10
2022-10-07T16:20:39.114Z,16.00
2022-10-07T16:23:05.687Z,15.90
2022-10-07T16:25:32.214Z,15.80
2022-10-07T16:28:17.592Z,15.80
2022-10-07T16:30:48.983Z,15.60
2022-10-07T16:33:15.660Z,15.50
2022-10-07T16:35:42.289Z,15.40
2022-10-07T16:38:08.837Z,15.30
2022-10-07T16:40:35.365Z,15.10
2022-10-07T16:43:01.970Z,14.90
2022-10-07T16:45:28.509Z,14.80
2022-10-07T16:47:55.663Z,14.70
2022-10-07T16:50:22.441Z,14.60
2022-10-07T16:52:48.950Z,14.40
2022-10-07T16:55:15.551Z,14.40
2022-10-07T16:57:42.144Z,14.20
2022-10-07T17:00:09.013Z,14.20
2022-10-07T17:02:35.742Z,14.10
2022-10-07T17:05:02.395Z,14.00
2022-10-07T17:07:28.940Z,14.00
2022-10-07T17:09:55.694Z,14.00
2022-10-07T17:12:24.339Z,14.00
2022-10-07T17:14:50.897Z,13.90
2022-10-07T17:17:18.358Z,13.90
2022-10-07T17:19:44.942Z,13.80
2022-10-07T17:22:11.479Z,13.60
2022-10-07T17:24:38.029Z,13.60
2022-10-07T17:27:07.343Z,13.50
2022-10-07T17:29:34.231Z,13.50
2022-10-07T17:32:00.767Z,13.50
2022-10-07T17:34:27.520Z,13.40
2022-10-07T17:36:54.236Z,13.30
2022-10-07T17:39:21.366Z,13.30
2022-10-07T17:41:47.901Z,13.20
2022-10-07T17:44:14.524Z,13.20
2022-10-07T17:46:41.287Z,13.10
2022-10-07T17:49:08.878Z,13.10
2022-10-07T17:51:36.948Z,13.10
2022-10-07T17:54:03.624Z,13.10
2022-10-07T17:56:31.268Z,13.00
2022-10-07T17:58:57.907Z,13.00
2022-10-07T18:01:27.125Z,13.00
2022-10-07T18:03:57.526Z,13.00
2022-10-07T18:06:24.675Z,13.00
2022-10-07T18:08:51.569Z,12.90
2022-10-07T18:11:18.125Z,12.90
2022-10-07T18:14:03.581Z,12.70
2022-10-07T18:16:33.869Z,12.70
2022-10-07T18:19:00.632Z,12.80
2022-10-07T18:21:28.202Z,12.80
2022-10-07T18:23:56.717Z,12.70
2022-10-07T18:26:23.248Z,12.60
2022-10-07T18:28:49.986Z,12.50
2022-10-07T18:31:16.899Z,12.40
2022-10-07T18:33:43.606Z,12.40
2022-10-07T18:36:14.069Z,12.30
2022-10-07T18:38:41.100Z,12.20
2022-10-07T18:41:08.697Z,12.10
2022-10-07T18:43:35.392Z,12.10
2022-10-07T18:46:06.005Z,12.10
2022-10-07T18:48:33.124Z,12.00
2022-10-07T18:50:59.856Z,11.90
2022-10-07T18:53:26.662Z,11.90
2022-10-07T18:55:53.222Z,11.80
2022-10-07T18:58:20.054Z,11.70
2022-10-07T19:00:46.843Z,11.70
2022-10-07T19:03:13.494Z,11.70
2022-10-07T19:05:40.173Z,11.80
2022-10-07T19:08:06.737Z,11.80
2022-10-07T19:10:37.106Z,11.70
2022-10-07T19:13:22.306Z,11.70
2022-10-07T19:15:48.863Z,11.70
2022-10-07T19:18:15.410Z,11.70
2022-10-07T19:20:42.330Z,11.60
2022-10-07T19:23:11.059Z,11.60
2022-10-07T19:25:47.159Z,11.70
2022-10-07T19:28:13.727Z,11.80
2022-10-07T19:30:42.504Z,11.80
2022-10-07T19:33:11.831Z,11.80
2022-10-07T19:35:38.582Z,11.80
2022-10-07T19:38:05.954Z,11.70
2022-10-07T19:40:39.848Z,11.70
2022-10-07T19:43:07.792Z,11.70
2022-10-07T19:45:35.343Z,11.70
2022-10-07T19:48:04.087Z,11.60
2022-10-07T19:50:30.643Z,11.60
2022-10-07T19:52:57.292Z,11.60
2022-10-07T19:55:28.232Z,11.60
2022-10-07T19:57:55.674Z,11.50
2022-10-07T20:00:22.418Z,11.50
2022-10-07T20:02:49.066Z,11.60
2022-10-07T20:05:15.879Z,11.60
2022-10-07T20:07:42.416Z,11.50
2022-10-07T20:10:09.051Z,11.50
2022-10-07T20:12:35.712Z,11.50
2022-10-07T20:15:02.645Z,11.50
2022-10-07T20:17:29.406Z,11.50
2022-10-07T20:19:56.619Z,11.60
2022-10-07T20:22:23.157Z,11.70
2022-10-07T20:24:49.705Z,11.70
2022-10-07T20:27:16.237Z,11.50
2022-10-07T20:29:58.117Z,11.50
2022-10-07T20:32:24.787Z,11.40
2022-10-07T20:34:53.840Z,11.30
2022-10-07T20:37:20.510Z,11.30
2022-10-07T20:40:05.435Z,11.30
2022-10-07T20:42:32.433Z,11.30
2022-10-07T20:44:59.080Z,11.20
2022-10-07T20:47:32.083Z,11.20
2022-10-07T20:50:00.294Z,11.20
2022-10-07T20:52:27.292Z,11.10
2022-10-07T20:54:53.839Z,11.10
2022-10-07T20:57:21.317Z,11.20
2022-10-07T20:59:47.904Z,11.20
2022-10-07T21:02:14.963Z,11.20
2022-10-07T21:04:41.685Z,11.10
2022-10-07T21:07:08.326Z,11.20
2022-10-07T21:09:39.646Z,11.10
2022-10-07T21:12:10.772Z,11.20
2022-10-07T21:14:37.504Z,11.10
2022-10-07T21:17:04.825Z,11.20
2022-10-07T21:19:37.398Z,11.20
2022-10-07T21:22:04.585Z,11.10
2022-10-07T21:24:34.244Z,11.20
2022-10-07T21:27:04.443Z,11.10
2022-10-07T21:29:37.708Z,11.10
2022-10-07T21:32:06.920Z,11.00
2022-10-07T21:34:33.459Z,10.90
2022-10-07T21:37:00.553Z,10.80
2022-10-07T21:39:27.173Z,10.80
2022-10-07T21:41:53.759Z,10.80
2022-10-07T21:44:20.405Z,10.80
2022-10-07T21:46:46.993Z,10.70
2022-10-07T21:49:14.107Z,10.70
2022-10-07T21:51:40.745Z,10.60
2022-10-07T21:54:07.377Z,10.60
2022-10-07T21:56:34.794Z,10.60
2022-10-07T21:59:01.560Z,10.50
2022-10-07T22:01:28.307Z,10.50
2022-10-07T22:03:55.443Z,10.40
2022-10-07T22:06:41.949Z,10.40
2022-10-07T22:09:08.617Z,10.40
2022-10-07T22:11:35.148Z,10.30
2022-10-07T22:14:01.694Z,10.30
2022-10-07T22:16:28.325Z,10.20
2022-10-07T22:18:54.903Z,10.20
2022-10-07T22:21:22.294Z,10.10
2022-10-07T22:23:52.541Z,10.00
2022-10-07T22:26:19.556Z,10.00
2022-10-07T22:28:46.766Z,10.00
2022-10-07T22:31:13.466Z,9.90
2022-10-07T22:33:41.132Z,9.90
2022-10-07T22:36:08.590Z,9.90
2022-10-07T22:38:35.166Z,9.90
2022-10-07T22:41:05.376Z,9.90
2022-10-07T22:43:34.549Z,9.90
2022-10-07T22:46:01.095Z,9.90
2022-10-07T22:48:29.191Z,9.80
2022-10-07T22:50:55.725Z,9.90
2022-10-07T22:53:26.254Z,9.90
2022-10-07T22:55:52.783Z,10.00
2022-10-07T22:58:19.323Z,10.00
2022-10-07T23:00:46.964Z,10.00
2022-10-07T23:03:13.679Z,10.00
2022-10-07T23:05:40.308Z,10.00
2022-10-07T23:08:06.864Z,10.00
2022-10-07T23:10:33.388Z,10.10
2022-10-07T23:13:00.689Z,10.00
2022-10-07T23:15:27.208Z,10.00
2022-10-07T23:17:53.765Z,9.90
2022-10-07T23:20:25.566Z,9.90
2022-10-07T23:22:52.115Z,9.80
2022-10-07T23:25:18.673Z,9.80
2022-10-07T23:27:45.201Z,9.70
2022-10-07T23:30:11.907Z,9.70
2022-10-07T23:32:38.435Z,9.70
2022-10-07T23:35:05.180Z,9.70
2022-10-07T23:37:31.703Z,9.70
2022-10-07T23:39:58.249Z,9.60
2022-10-07T23:42:24.905Z,9.60
2022-10-07T23:44:51.436Z,9.60
2022-10-07T23:47:18.039Z,9.60
2022-10-07T23:49:44.579Z,9.60
2022-10-07T23:52:12.833Z,9.60
2022-10-07T23:54:40.033Z,9.70
2022-10-07T23:57:06.571Z,9.70
2022-10-07T23:59:33.125Z,9.70
